Time;durP1;ratioP1;P1;durP2;ratioP2;P2;SDS_P1;SDS_P2;PMS_P1;PMS_P2;Temp;Humidity;BMP_temperature;BMP_pressure;BME280_temperature;BME280_humidity;BME280_pressure;Samples;Min_cycle;Max_cycle;Signal;HPM_P1;HPM_P2
2022/02/09 00:01:45;;;;;;;2.30;2.10;;;;;;;18.87;45.68;98756.06;4831418;29;20275;-87
2022/02/09 00:09:09;;;;;;;1.83;1.73;;;;;;;17.02;45.52;98444.56;4846686;29;20688;-88
2022/02/09 00:44:11;;;;;;;2.00;1.80;;;;;;;17.44;45.58;98536.16;4847778;29;20297;-88
2022/02/09 00:58:58;;;;;;;1.70;1.50;;;;;;;18.25;45.76;98673.38;4850385;29;20342;-89
2022/02/09 01:59:44;;;;;;;;;;;;;;;;;;;;;
2022/02/09 02:03:02;;;;;;;2.50;1.83;;;;;;;9.76;45.92;97210.56;4823948;29;20252;-81
2022/02/09 02:09:35;;;;;;;1.80;1.70;;;;;;;12.24;46.17;97672.88;4810736;29;20237;-80
2022/02/09 02:44:37;;;;;;;2.10;1.97;;;;;;;19.12;46.41;98784.72;4816922;29;20221;-80
2022/02/09 03:13:50;;;;;;;2.40;2.20;;;;;;;9.47;46.29;97110.72;4830761;29;20664;-86
2022/02/09 03:16:43;;;;;;;1.97;1.77;;;;;;;17.46;46.61;98642.16;4810152;29;20223;-87
2022/02/09 03:31:19;;;;;;;2.37;2.17;;;;;;;11.34;46.41;97451.03;4838480;29;20609;-85
2022/02/09 03:42:47;;;;;;;3.10;2.10;;;;;;;16.11;46.72;98278.97;4873655;29;20203;-90
2022/02/09 03:48:35;;;;;;;2.10;1.80;;;;;;;9.03;46.26;96994.03;4872331;29;20202;-81
2022/02/09 03:51:56;;;;;;;2.20;2.00;;;;;;;15.92;46.55;98239.72;4881745;29;20230;-81
2022/02/09 03:57:30;;;;;;;2.30;2.10;;;;;;;10.98;46.06;97373.13;4862750;29;20276;-80
2022/02/09 04:00:02;;;;;;;2.47;2.27;;;;;;;9.81;45.76;97252.78;4884876;29;20227;-79
2022/02/09 04:03:05;;;;;;;3.50;2.40;;;;;;;9.47;45.49;97246.13;4872495;29;20214;-81
2022/02/09 04:05:34;;;;;;;2.17;1.90;;;;;;;9.76;46.26;97221.47;4885923;29;20213;-82
2022/02/09 04:08:05;;;;;;;2.33;2.03;;;;;;;8.76;46.33;96972.94;4871642;29;20203;-81
2022/02/09 04:10:41;;;;;;;2.57;2.10;;;;;;;16.89;46.16;98454.75;4871655;29;20234;-80
2022/02/09 04:13:45;;;;;;;3.43;2.10;;;;;;;14.13;46.61;97912.69;4886562;29;20210;-80
2022/02/09 04:19:22;;;;;;;2.43;2.23;;;;;;;8.09;45.63;96926.41;4871847;29;20211;-82
2022/02/09 04:44:10;;;;;;;2.20;2.00;;;;;;;18.83;46.07;98655.66;4872888;29;22313;-81
2022/02/09 04:55:38;;;;;;;2.30;2.00;;;;;;;18.83;46.13;98647.16;4853814;29;20508;-80
2022/02/09 04:58:14;;;;;;;2.60;2.23;;;;;;;16.52;46.21;98299.31;4874813;29;20245;-82
2022/02/09 05:18:32;;;;;;;2.50;2.30;;;;;;;18.78;46.52;98644.34;4856533;29;20568;-80
2022/02/09 05:23:58;;;;;;;2.47;2.17;;;;;;;19.13;46.41;98710.06;4887568;29;20634;-80
2022/02/09 05:26:37;;;;;;;2.40;2.20;;;;;;;18.27;46.18;98555.63;4874459;29;20583;-80
2022/02/09 05:29:03;;;;;;;3.17;2.30;;;;;;;16.88;45.92;98304.09;4874216;29;20293;-80
2022/02/09 05:31:30;;;;;;;2.87;2.13;;;;;;;19.13;46.24;98697.31;4873061;29;20261;-81
2022/02/09 05:34:00;;;;;;;2.77;2.50;;;;;;;18.66;46.19;98607.13;4874510;29;20243;-80
2022/02/09 05:36:26;;;;;;;2.87;2.27;;;;;;;19.12;46.08;98691.34;4874163;29;20246;-77
2022/02/09 05:38:54;;;;;;;3.33;2.10;;;;;;;17.29;46.68;98375.97;4874184;29;20242;-81
2022/02/09 05:41:21;;;;;;;2.83;2.50;;;;;;;18.59;46.82;98597.38;4872149;29;20306;-81
2022/02/09 05:43:48;;;;;;;2.67;2.20;;;;;;;18.80;46.21;98650.41;4873942;29;20631;-81
2022/02/09 05:51:51;;;;;;;2.50;2.10;;;;;;;19.13;46.21;98697.31;4888557;29;20278;-80
2022/02/09 05:54:48;;;;;;;2.47;2.10;;;;;;;18.62;45.95;98607.75;4875229;29;20643;-80
2022/02/09 05:57:24;;;;;;;2.20;2.00;;;;;;;16.91;46.42;98305.94;4885779;29;20245;-80
2022/02/09 05:59:50;;;;;;;2.37;2.00;;;;;;;17.59;46.17;98430.31;4887332;29;20684;-80
2022/02/09 06:02:19;;;;;;;2.50;2.30;;;;;;;18.78;46.33;98639.25;4858212;29;20207;-80
2022/02/09 06:04:46;;;;;;;2.73;2.20;;;;;;;18.43;46.12;98584.53;4855744;29;20211;-81
2022/02/09 06:07:14;;;;;;;3.23;2.30;;;;;;;18.04;46.30;98515.25;4888033;29;20238;-80
2022/02/09 06:09:40;;;;;;;3.67;2.30;;;;;;;18.32;46.02;98557.56;4888581;29;20244;-77
2022/02/09 06:12:31;;;;;;;3.67;2.13;;;;;;;18.51;46.35;98593.50;4857620;29;20218;-81
2022/02/09 06:20:10;;;;;;;2.50;2.30;;;;;;;18.28;46.10;98559.06;4873569;29;20254;-80
2022/02/09 06:22:36;;;;;;;2.40;2.20;;;;;;;18.64;45.92;98623.97;4860550;29;20303;-79
2022/02/09 06:25:03;;;;;;;3.63;2.20;;;;;;;18.22;46.11;98545.97;4878524;29;20247;-78
2022/02/09 06:27:30;;;;;;;2.43;2.23;;;;;;;18.13;45.94;98527.63;4862452;29;20238;-82
2022/02/09 06:29:57;;;;;;;2.87;2.43;;;;;;;18.98;45.90;98676.91;4892942;29;20600;-81
2022/02/09 06:32:24;;;;;;;2.83;2.53;;;;;;;16.42;46.18;98220.88;4877374;29;20218;-81
2022/02/09 06:34:51;;;;;;;2.23;2.03;;;;;;;18.05;45.97;98516.13;4876108;29;20241;-82
2022/02/09 06:37:27;;;;;;;2.80;2.60;;;;;;;19.19;45.75;98718.91;4876344;29;20354;-81
2022/02/09 06:39:57;;;;;;;2.90;2.43;;;;;;;18.02;46.11;98539.72;4878560;29;20230;-82
2022/02/09 06:42:24;;;;;;;4.83;2.10;;;;;;;13.87;45.88;97791.41;4891392;29;20226;-81
2022/02/09 06:44:52;;;;;;;2.50;2.13;;;;;;;16.11;45.71;98175.03;4876224;29;20239;-80
2022/02/09 06:47:22;;;;;;;2.40;2.20;;;;;;;18.61;46.03;98613.59;4888571;29;20326;-81
2022/02/09 06:49:57;;;;;;;2.37;2.17;;;;;;;16.64;45.78;98259.47;4885401;29;20318;-82
2022/02/09 06:52:23;;;;;;;3.60;2.23;;;;;;;18.82;46.08;98650.47;4870098;29;20237;-83
2022/02/09 06:55:11;;;;;;;2.60;2.10;;;;;;;17.52;45.92;98426.53;4871238;29;20276;-76
2022/02/09 06:58:17;;;;;;;3.83;2.30;;;;;;;19.20;45.88;98720.69;4872369;29;20238;-81
2022/02/09 07:00:33;;;;;;;2.53;2.30;;;;;;;18.51;45.81;98590.97;4868767;29;20743;-80
2022/02/09 07:03:01;;;;;;;2.10;1.90;;;;;;;14.39;45.81;97963.25;4883140;29;20286;-78
2022/02/09 07:05:28;;;;;;;3.77;2.07;;;;;;;17.77;45.76;98464.44;4857709;29;20221;-80
2022/02/09 07:07:54;;;;;;;3.10;2.30;;;;;;;19.23;45.64;98736.16;4887054;29;20305;-82
2022/02/09 07:12:49;;;;;;;7.57;3.00;;;;;;;18.94;44.61;98649.53;4890401;29;20226;-85
2022/02/09 07:15:25;;;;;;;5.47;3.10;;;;;;;18.99;43.83;98660.88;4869028;29;20641;-85
2022/02/09 07:17:52;;;;;;;4.90;3.20;;;;;;;19.04;43.05;98658.59;4866663;29;20198;-83
2022/02/09 07:20:26;;;;;;;4.53;3.63;;;;;;;19.03;42.27;98664.44;4874993;29;20273;-84
2022/02/09 07:22:56;;;;;;;5.37;3.90;;;;;;;18.92;42.28;98645.16;4870806;29;20221;-84
2022/02/09 07:25:30;;;;;;;5.93;4.20;;;;;;;19.09;42.06;98669.88;4867350;29;20274;-84
2022/02/09 07:28:01;;;;;;;9.23;4.70;;;;;;;19.09;41.42;98663.13;4871398;29;20238;-84
2022/02/09 07:30:28;;;;;;;4.77;4.13;;;;;;;18.76;41.05;98610.28;4872092;29;20246;-87
2022/02/09 07:32:55;;;;;;;6.40;4.57;;;;;;;19.01;40.87;98651.63;4874515;29;20630;-84
2022/02/09 07:35:22;;;;;;;7.20;3.90;;;;;;;19.05;40.20;98660.31;4874446;29;20206;-85
2022/02/09 07:37:49;;;;;;;5.47;4.10;;;;;;;18.94;40.36;98635.91;4859417;29;20640;-83
2022/02/09 07:40:17;;;;;;;8.93;4.37;;;;;;;19.19;40.19;98682.38;4870492;29;20203;-83
2022/02/09 07:42:54;;;;;;;6.43;4.40;;;;;;;18.98;40.20;98651.44;4872918;29;20589;-83
2022/02/09 07:50:42;;;;;;;6.33;4.37;;;;;;;19.06;40.74;98662.97;4859592;29;20311;-84
2022/02/09 07:53:23;;;;;;;5.80;4.30;;;;;;;19.20;40.93;98687.56;4874384;29;20207;-84
2022/02/09 07:55:49;;;;;;;4.17;3.73;;;;;;;19.20;41.24;98685.03;4873756;29;20297;-86
2022/02/09 07:58:16;;;;;;;6.63;4.27;;;;;;;19.06;41.29;98665.50;4873171;29;20289;-84
2022/02/09 08:00:45;;;;;;;5.70;3.80;;;;;;;19.14;41.79;98679.56;4856465;29;20249;-83
2022/02/09 08:03:11;;;;;;;4.93;3.93;;;;;;;18.94;41.95;98641.88;4857255;29;20263;-86
2022/02/09 08:05:44;;;;;;;4.63;4.00;;;;;;;18.94;42.29;98648.63;4865787;29;20424;-87
2022/02/09 08:08:10;;;;;;;4.90;3.40;;;;;;;19.04;42.37;98661.13;4858994;29;20749;-86
2022/02/09 08:27:07;;;;;;;4.40;3.30;;;;;;;19.34;42.90;98696.91;4877807;29;20202;-84
2022/02/09 08:29:45;;;;;;;4.00;3.00;;;;;;;19.15;43.40;98663.47;4865048;29;20259;-85
2022/02/09 08:34:38;;;;;;;3.30;3.00;;;;;;;18.78;42.99;98595.97;4862869;29;20273;-86
2022/02/09 08:37:06;;;;;;;3.57;2.97;;;;;;;19.22;43.22;98657.94;4843494;29;20642;-84
2022/02/09 08:39:33;;;;;;;3.87;3.00;;;;;;;19.37;43.38;98686.88;4873513;29;20709;-84
2022/02/09 08:41:59;;;;;;;3.90;3.27;;;;;;;19.37;43.43;98680.91;4857189;29;20725;-83
2022/02/09 08:44:26;;;;;;;4.03;3.00;;;;;;;19.13;43.31;98644.66;4876490;29;20298;-84
2022/02/09 08:46:53;;;;;;;3.60;3.30;;;;;;;19.27;43.46;98665.91;4845609;29;20207;-85
2022/02/09 08:49:20;;;;;;;3.53;3.17;;;;;;;19.16;43.75;98660.13;4859130;29;20286;-84
2022/02/09 08:51:47;;;;;;;4.50;3.23;;;;;;;19.21;43.37;98668.94;4861137;29;20269;-87
2022/02/09 08:54:13;;;;;;;3.60;3.10;;;;;;;19.16;43.46;98656.72;4862442;29;20211;-85
2022/02/09 08:56:40;;;;;;;3.20;2.90;;;;;;;19.27;43.87;98671.84;4862035;29;20633;-85
2022/02/09 08:59:07;;;;;;;3.20;2.90;;;;;;;19.20;43.84;98667.19;4859929;29;20232;-84
2022/02/09 09:01:42;;;;;;;3.67;2.90;;;;;;;19.24;44.05;98673.31;4877850;29;20215;-87
2022/02/09 09:04:33;;;;;;;3.53;3.03;;;;;;;18.82;43.68;98602.97;4878264;29;20199;-84
2022/02/09 09:07:05;;;;;;;5.00;3.17;;;;;;;18.69;43.69;98570.00;4877580;29;20622;-86
2022/02/09 09:15:22;;;;;;;3.23;2.93;;;;;;;19.07;43.91;98641.78;4877234;29;20199;-85
2022/02/09 09:59:05;;;;;;;3.27;2.77;;;;;;;18.93;44.56;98635.03;4848661;29;20267;-86
2022/02/09 10:02:09;;;;;;;3.13;2.60;;;;;;;18.97;44.82;98638.63;4872071;29;20656;-85
2022/02/09 10:33:35;;;;;;;3.90;2.73;;;;;;;19.06;44.64;98631.50;4875595;29;20235;-85
2022/02/09 10:36:13;;;;;;;3.63;2.83;;;;;;;18.92;44.60;98601.84;4858755;29;20242;-85
2022/02/09 10:38:42;;;;;;;3.77;3.03;;;;;;;19.04;44.68;98620.38;4845510;29;20295;-86
2022/02/09 10:41:23;;;;;;;3.03;2.70;;;;;;;19.05;44.81;98619.56;4875623;29;20269;-84
2022/02/09 10:44:04;;;;;;;2.50;2.30;;;;;;;19.07;44.47;98620.53;4876314;29;20309;-86
2022/02/09 10:46:31;;;;;;;2.83;2.60;;;;;;;18.99;44.68;98607.38;4877052;29;20207;-86
2022/02/09 10:49:02;;;;;;;5.13;2.70;;;;;;;18.97;44.49;98591.13;4874177;29;20986;-85
2022/02/09 10:54:32;;;;;;;2.97;2.67;;;;;;;18.99;44.78;98584.44;4874040;29;20290;-85
2022/02/09 10:57:04;;;;;;;3.17;2.30;;;;;;;18.64;44.85;98522.13;4873201;29;20203;-86
2022/02/09 10:59:35;;;;;;;2.60;2.37;;;;;;;18.74;44.69;98530.34;4889818;29;20207;-85
2022/02/09 11:02:02;;;;;;;2.50;2.30;;;;;;;18.69;44.86;98518.16;4872844;29;20790;-84
2022/02/09 11:04:30;;;;;;;2.93;2.30;;;;;;;18.84;44.79;98550.47;4858811;29;20740;-86
2022/02/09 11:06:56;;;;;;;2.60;2.37;;;;;;;19.20;44.52;98602.59;4874493;29;20645;-85
2022/02/09 11:09:27;;;;;;;2.93;2.63;;;;;;;18.86;44.71;98542.91;4890944;29;20669;-88
2022/02/09 11:11:55;;;;;;;3.20;2.63;;;;;;;19.07;44.67;98577.22;4874497;29;20772;-85
2022/02/09 11:14:24;;;;;;;3.70;2.50;;;;;;;19.07;44.78;98577.22;4874515;29;20262;-86
2022/02/09 11:16:56;;;;;;;2.70;2.50;;;;;;;19.04;44.68;98564.31;4844462;29;20753;-93
2022/02/09 11:19:34;;;;;;;2.70;2.50;;;;;;;19.07;44.59;98575.53;4889978;29;20251;-85
2022/02/09 11:22:04;;;;;;;2.83;2.60;;;;;;;19.25;44.72;98596.97;4873813;29;20251;-85
2022/02/09 11:24:31;;;;;;;2.60;2.40;;;;;;;18.90;44.58;98533.00;4889880;29;20321;-85
2022/02/09 11:27:34;;;;;;;3.43;2.60;;;;;;;19.25;44.63;98581.69;4872935;29;20270;-86
2022/02/09 11:30:24;;;;;;;2.83;2.63;;;;;;;19.28;44.91;98588.63;4859729;29;20238;-85
2022/02/09 11:33:29;;;;;;;2.90;2.60;;;;;;;19.08;44.59;98549.28;4884217;29;21010;-84
2022/02/09 11:36:59;;;;;;;3.30;2.30;;;;;;;18.82;44.67;98488.38;4873079;29;20214;-85
2022/02/09 11:39:04;;;;;;;2.50;2.30;;;;;;;19.07;44.55;98534.78;4880426;29;20994;-85
2022/02/09 11:41:55;;;;;;;2.20;2.00;;;;;;;19.09;44.53;98545.94;4870366;29;20261;-87
2022/02/09 11:44:52;;;;;;;2.60;2.27;;;;;;;19.25;44.55;98560.41;4870996;29;20228;-85
2022/02/09 11:48:30;;;;;;;3.60;2.57;;;;;;;19.10;44.66;98529.84;4875713;29;20207;-85
2022/02/09 11:51:26;;;;;;;2.60;2.40;;;;;;;19.10;44.75;98529.84;4874594;29;20238;-86
2022/02/09 12:01:25;;;;;;;2.43;2.23;;;;;;;19.03;44.51;98504.84;4860909;29;20876;-85
2022/02/09 12:09:47;;;;;;;3.23;2.20;;;;;;;19.23;44.61;98524.63;4878641;29;20316;-86
2022/02/09 12:12:18;;;;;;;2.50;2.30;;;;;;;18.86;44.44;98461.41;4890343;29;20318;-85
2022/02/09 12:15:18;;;;;;;3.13;2.30;;;;;;;19.39;44.58;98550.16;4877456;29;20297;-88
2022/02/09 12:20:28;;;;;;;2.50;2.30;;;;;;;19.18;44.51;98498.00;4891861;29;20239;-88
2022/02/09 12:25:48;;;;;;;2.50;2.30;;;;;;;19.26;44.55;98500.97;4858839;29;20558;-85
2022/02/09 12:28:26;;;;;;;2.30;2.10;;;;;;;19.28;44.56;98507.06;4876731;29;20286;-85
2022/02/09 12:31:10;;;;;;;2.30;2.10;;;;;;;19.20;44.41;98482.81;4885540;29;20254;-85
2022/02/09 12:33:47;;;;;;;2.90;2.50;;;;;;;19.23;44.40;98485.53;4876164;29;20242;-85
2022/02/09 12:36:19;;;;;;;2.50;2.03;;;;;;;19.09;44.55;98471.16;4862630;29;20285;-87
2022/02/09 12:38:47;;;;;;;2.90;2.30;;;;;;;19.19;44.32;98479.38;4879856;29;20639;-86
2022/02/09 12:41:15;;;;;;;2.77;2.40;;;;;;;19.26;44.39;98486.56;4875559;29;20313;-84
2022/02/09 12:43:49;;;;;;;2.40;2.20;;;;;;;19.16;44.30;98468.16;4889223;29;20212;-85
2022/02/09 12:46:21;;;;;;;2.70;2.40;;;;;;;19.22;44.40;98474.44;4889297;29;20223;-86
2022/02/09 12:48:49;;;;;;;2.50;2.30;;;;;;;19.26;44.54;98485.69;4853340;29;20210;-86
2022/02/09 12:51:29;;;;;;;2.77;2.50;;;;;;;19.18;44.35;98469.09;4876485;29;20317;-86
2022/02/09 12:54:00;;;;;;;2.70;2.33;;;;;;;19.09;44.33;98449.09;4877147;29;20225;-86
2022/02/09 12:56:29;;;;;;;2.60;2.10;;;;;;;19.27;44.45;98475.59;4848465;29;20307;-85
2022/02/09 12:58:56;;;;;;;2.70;2.20;;;;;;;19.41;44.54;98502.72;4891527;29;20669;-85
2022/02/09 13:01:23;;;;;;;3.57;2.30;;;;;;;19.27;44.57;98477.31;4888916;29;20251;-84
2022/02/09 13:03:50;;;;;;;3.57;2.00;;;;;;;19.36;44.56;98480.34;4878313;29;20234;-86
2022/02/09 13:06:16;;;;;;;2.40;2.20;;;;;;;19.01;44.65;98424.03;4862754;29;20245;-87
2022/02/09 13:08:49;;;;;;;2.07;1.90;;;;;;;19.40;44.67;98492.44;4878446;29;20238;-85
2022/02/09 13:13:46;;;;;;;2.40;2.20;;;;;;;19.31;44.75;98508.13;4877043;29;20202;-80
2022/02/09 14:17:20;;;;;;;2.07;1.97;;;;;;;19.09;45.40;98427.84;4893032;29;20412;-78
2022/02/09 14:48:05;;;;;;;3.77;2.00;;;;;;;19.21;45.51;98423.38;4878231;29;20262;-79
2022/02/09 14:53:03;;;;;;;2.93;2.10;;;;;;;19.22;45.06;98426.03;4887204;29;20317;-79
2022/02/09 14:58:25;;;;;;;7.00;2.67;;;;;;;17.49;43.97;98121.41;4861308;29;20672;-81
2022/02/09 15:09:15;;;;;;;3.20;2.30;;;;;;;18.29;44.42;98252.06;4891115;29;20289;-79
2022/02/09 15:15:02;;;;;;;4.57;2.50;;;;;;;18.48;44.45;98298.06;4843919;29;20269;-79
2022/02/09 15:22:33;;;;;;;2.87;2.30;;;;;;;18.03;44.72;98198.09;4881101;29;20234;-80
2022/02/09 15:25:00;;;;;;;2.27;2.07;;;;;;;18.64;44.88;98301.50;4876476;29;20210;-79
2022/02/09 15:27:26;;;;;;;2.93;2.33;;;;;;;19.24;44.92;98403.16;4871257;29;20285;-80
2022/02/09 15:29:53;;;;;;;3.83;2.40;;;;;;;19.25;44.90;98402.38;4887492;29;20817;-80
2022/02/09 15:32:35;;;;;;;2.93;2.30;;;;;;;19.26;44.77;98399.03;4891675;29;20441;-78
2022/02/09 15:35:25;;;;;;;4.80;2.10;;;;;;;17.99;44.86;98183.47;4890691;29;20260;-80
2022/02/09 15:43:09;;;;;;;2.43;2.23;;;;;;;19.29;44.68;98402.66;4869457;29;20682;-80
2022/02/09 16:08:11;;;;;;;3.07;1.97;;;;;;;17.76;44.83;98106.75;4890029;29;20208;-79
2022/02/09 16:23:58;;;;;;;3.10;2.07;;;;;;;19.21;44.76;98342.72;4875743;29;20321;-80
2022/02/09 16:45:35;;;;;;;2.10;1.90;;;;;;;18.68;44.71;98254.19;4891174;29;20206;-81
2022/02/09 16:48:04;;;;;;;2.37;1.63;;;;;;;18.05;44.67;98145.66;4877607;29;20276;-80
2022/02/09 16:50:37;;;;;;;3.13;1.90;;;;;;;18.80;44.47;98262.44;4877314;29;20293;-81
2022/02/09 16:53:13;;;;;;;2.07;1.80;;;;;;;17.43;44.69;98039.78;4846002;29;20685;-80
2022/02/09 16:56:21;;;;;;;2.30;1.70;;;;;;;18.48;44.73;98222.59;4874761;29;20743;-88
2022/02/09 17:20:24;;;;;;;1.77;1.67;;;;;;;18.93;45.27;98324.28;4893431;29;20305;-87
2022/02/09 17:22:51;;;;;;;2.10;1.80;;;;;;;19.27;45.20;98376.22;4877476;29;20783;-89
2022/02/09 17:25:17;;;;;;;2.23;2.00;;;;;;;18.70;45.42;98280.56;4889033;29;20289;-90
2022/02/09 17:27:47;;;;;;;1.67;1.57;;;;;;;17.02;45.06;97985.84;4861956;29;20293;-88
2022/02/09 17:35:31;;;;;;;2.37;1.70;;;;;;;18.02;44.99;98144.59;4876986;29;20238;-91
2022/02/09 17:56:59;;;;;;;3.20;1.83;;;;;;;18.27;44.98;98170.56;4893748;29;20234;-80
2022/02/09 17:59:25;;;;;;;2.13;1.90;;;;;;;17.84;45.10;98093.66;4890999;29;20975;-80
2022/02/09 18:01:57;;;;;;;2.37;2.00;;;;;;;19.01;44.86;98294.97;4888655;29;20285;-80
2022/02/09 18:04:24;;;;;;;3.03;1.77;;;;;;;17.46;44.96;98021.25;4890879;29;20743;-82
2022/02/09 18:07:05;;;;;;;1.80;1.70;;;;;;;18.27;44.92;98162.94;4891640;29;20218;-81
2022/02/09 18:09:39;;;;;;;1.90;1.80;;;;;;;18.14;44.55;98140.16;4853448;29;20299;-81
2022/02/09 18:31:13;;;;;;;1.93;1.80;;;;;;;16.49;44.85;97827.25;4880774;29;20298;-80
2022/02/09 18:43:02;;;;;;;2.57;2.00;;;;;;;18.81;44.66;98226.88;4876608;29;20737;-78
2022/02/09 18:45:31;;;;;;;2.43;1.90;;;;;;;18.96;44.80;98265.88;4875070;29;20728;-80
2022/02/09 19:04:23;;;;;;;3.07;2.00;;;;;;;18.19;44.73;98116.72;4866294;29;20268;-80
2022/02/09 19:46:41;;;;;;;2.93;2.07;;;;;;;17.42;44.85;97976.13;4879846;29;20218;-86
2022/02/09 19:55:06;;;;;;;2.37;2.17;;;;;;;17.44;45.06;98027.94;4830166;29;20232;-87
2022/02/09 19:57:36;;;;;;;2.20;2.00;;;;;;;15.82;45.22;97697.66;4880277;29;20222;-86
2022/02/09 20:00:07;;;;;;;2.97;2.47;;;;;;;19.19;44.91;98303.53;4862248;29;20218;-87
2022/02/09 20:02:40;;;;;;;2.17;1.93;;;;;;;14.40;44.77;97507.44;4860937;29;20603;-87
2022/02/09 20:05:10;;;;;;;2.50;2.30;;;;;;;16.65;44.76;97832.38;4873603;29;20213;-87
2022/02/09 20:07:37;;;;;;;2.30;2.10;;;;;;;13.67;44.64;97304.44;4893216;29;20221;-87
2022/02/09 20:10:04;;;;;;;2.67;2.40;;;;;;;17.30;44.83;97942.47;4879583;29;20209;-87
2022/02/09 20:12:38;;;;;;;2.80;2.53;;;;;;;14.39;44.76;97451.75;4846429;29;20376;-85
2022/02/09 20:15:17;;;;;;;3.67;2.87;;;;;;;15.36;44.65;97625.84;4869007;29;20225;-87
2022/02/09 20:17:45;;;;;;;3.20;2.63;;;;;;;17.14;44.69;97923.00;4895891;29;20633;-87
2022/02/09 20:20:17;;;;;;;3.50;2.87;;;;;;;17.39;44.65;97943.84;4863922;29;20213;-87
2022/02/09 20:44:28;;;;;;;3.77;3.03;;;;;;;14.09;44.45;97400.31;5293768;23;20241;-87
2022/02/09 20:47:02;;;;;;;3.17;2.87;;;;;;;15.29;44.63;97625.44;4898486;29;20205;-87
2022/02/09 20:49:28;;;;;;;3.90;3.10;;;;;;;15.00;44.67;97545.38;4913543;29;20217;-88
2022/02/09 20:51:55;;;;;;;3.63;3.10;;;;;;;13.02;44.26;97231.72;4897660;29;20234;-87
2022/02/09 20:54:22;;;;;;;4.50;3.07;;;;;;;15.00;44.73;97547.00;4880402;29;20665;-87
2022/02/09 20:56:48;;;;;;;3.90;2.97;;;;;;;13.99;44.54;97398.06;4895030;29;20253;-87
2022/02/09 20:59:17;;;;;;;3.63;3.27;;;;;;;17.62;44.51;98021.28;4882353;29;20619;-86
2022/02/09 21:02:17;;;;;;;2.90;2.70;;;;;;;17.20;44.74;97958.03;4880975;29;20233;-88
2022/02/09 21:04:52;;;;;;;2.90;2.60;;;;;;;18.67;44.78;98170.94;4912861;29;20201;-87
2022/02/09 21:07:37;;;;;;;3.43;2.90;;;;;;;19.38;45.15;98324.13;4879467;29;20668;-87
2022/02/09 21:10:22;;;;;;;3.10;2.70;;;;;;;18.12;44.88;98116.34;4884885;29;20232;-87
2022/02/09 21:13:00;;;;;;;2.80;2.60;;;;;;;17.85;44.82;98041.13;4898082;29;20241;-87
2022/02/09 21:57:52;;;;;;;4.17;2.93;;;;;;;18.60;45.30;98196.88;4893944;29;20312;-87
2022/02/09 22:00:33;;;;;;;3.63;3.00;;;;;;;16.94;44.97;97877.94;4893174;29;20217;-87
2022/02/09 22:22:18;;;;;;;4.03;3.20;;;;;;;14.96;44.85;97578.00;4906262;29;20226;-87
2022/02/09 22:56:57;;;;;;;3.30;3.00;;;;;;;13.52;44.93;97259.81;4879129;29;20676;-87
2022/02/09 22:59:36;;;;;;;3.83;3.40;;;;;;;15.18;44.86;97601.16;4877269;29;20699;-88
2022/02/09 23:02:09;;;;;;;3.80;3.40;;;;;;;17.44;45.02;97952.59;4864013;29;20217;-87
2022/02/09 23:12:16;;;;;;;3.93;3.50;;;;;;;15.83;44.63;97674.91;4873207;29;20250;-88
